EmailTwitter


Surface observations / France / LFBO (07630)

Regions: Quebec | Canada | USA | Europe | France | UK | Elsewhere
Station
Display
Info & Location for LFBO (07630) | Help decoding METAR

Weather Conditions observed on 2017/04/26 at 01:30 UTC at TOULOUSE/BLAGNAC, FR (LFBO)

Sky conditions: partly cloudy.

Temperature: 10.0 Celsius.

Dewpoint: 9.0 Celsius.

Relative Humidity: 93%

Winds: West at 9 km/h or 5 knots.

Mean Sea level Pressure: 100.80 kilopascals.

Horizontal visibility: 6.21 statute miles or 9.94 kilometers.

Height of the Ceiling: 640 metres ( 2100 feet ).

Coded METAR:

LFBO 260130Z AUTO 26005KT 230V290 9999 SCT010 BKN021 BKN052 10/09 Q1008 BECMG

BKN010=